Time;durP1;ratioP1;P1;durP2;ratioP2;P2;SDS_P1;SDS_P2;PMS_P1;PMS_P2;Temp;Humidity;BMP_temperature;BMP_pressure;BME280_temperature;BME280_humidity;BME280_pressure;Samples;Min_cycle;Max_cycle;Signal;HPM_P1;HPM_P2
2023/07/11 00:00:31;;;;;;;;;;;;;;;23.05;78.78;99952.28;6322208;28;20097;-69
2023/07/11 00:03:32;;;;;;;4.90;3.25;;;;;;;23.23;77.29;99967.13;6308258;28;20374;-73
2023/07/11 00:06:33;;;;;;;5.43;3.77;;;;;;;23.34;75.82;99953.41;6325574;28;20135;-73
2023/07/11 00:09:33;;;;;;;5.77;3.67;;;;;;;23.29;76.02;99950.47;6326859;28;20052;-69
2023/07/11 00:12:36;;;;;;;4.10;3.17;;;;;;;23.05;77.58;99941.63;6326436;28;20056;-72
2023/07/11 00:15:37;;;;;;;5.53;3.33;;;;;;;23.00;77.68;99949.31;6325771;28;20079;-73
2023/07/11 00:18:38;;;;;;;7.80;3.53;;;;;;;22.63;77.99;99957.97;6313187;28;20766;-73
2023/07/11 00:21:39;;;;;;;4.63;3.77;;;;;;;22.69;77.99;99941.31;6300429;28;20049;-69
2023/07/11 00:24:39;;;;;;;5.13;3.63;;;;;;;22.70;78.89;99935.03;6301060;28;20106;-69
2023/07/11 00:27:40;;;;;;;5.87;3.57;;;;;;;22.39;80.93;99943.00;6300719;28;20044;-70
2023/07/11 00:30:41;;;;;;;8.00;4.05;;;;;;;22.25;82.56;99936.56;6299934;28;20135;-72
2023/07/11 00:33:42;;;;;;;7.00;4.03;;;;;;;22.04;85.06;99950.41;6317316;28;20091;-69
2023/07/11 00:36:43;;;;;;;9.00;3.83;;;;;;;22.28;84.96;99933.59;6301031;28;20060;-69
2023/07/11 00:39:46;;;;;;;5.43;3.80;;;;;;;22.30;85.19;99936.91;6299949;28;20052;-70
2023/07/11 00:42:50;;;;;;;7.05;3.75;;;;;;;22.42;85.55;99945.28;6300277;28;20070;-73
2023/07/11 00:46:13;;;;;;;5.55;3.75;;;;;;;22.37;86.30;99937.84;6299521;28;20055;-73
2023/07/11 00:49:21;;;;;;;8.27;4.25;;;;;;;22.45;87.23;99945.78;6300464;28;20053;-70
2023/07/11 00:52:23;;;;;;;5.88;3.70;;;;;;;22.43;88.15;99929.19;6301059;28;20056;-73
2023/07/11 00:55:24;;;;;;;6.80;3.72;;;;;;;22.43;88.93;99931.84;6300344;28;20052;-70
2023/07/11 00:58:28;;;;;;;7.73;4.67;;;;;;;22.17;90.78;99937.38;6300060;28;20488;-72
2023/07/11 01:01:30;;;;;;;6.35;4.20;;;;;;;21.94;93.97;99932.00;6300533;28;20103;-69
2023/07/11 01:04:34;;;;;;;10.05;3.95;;;;;;;21.91;94.12;99925.19;6300174;28;20095;-69
2023/07/11 01:07:39;;;;;;;11.60;4.65;;;;;;;22.10;92.90;99920.50;6298961;28;20094;-69
2023/07/11 01:10:40;;;;;;;5.80;4.30;;;;;;;22.03;93.69;99922.16;6299587;28;20106;-72
2023/07/11 01:13:41;;;;;;;6.47;4.27;;;;;;;21.94;95.09;99916.88;6300598;28;20393;-72
2023/07/11 01:16:44;;;;;;;7.67;4.13;;;;;;;21.79;96.46;99920.41;6298815;28;20056;-69
2023/07/11 01:19:44;;;;;;;9.02;4.35;;;;;;;21.93;95.24;99925.03;6300346;28;20511;-73
2023/07/11 01:22:45;;;;;;;8.50;4.77;;;;;;;21.75;96.76;99916.44;6298401;28;20053;-69
2023/07/11 01:25:46;;;;;;;10.77;4.43;;;;;;;21.72;97.72;99905.16;6315439;28;20052;-70
2023/07/11 01:28:47;;;;;;;7.30;4.97;;;;;;;21.72;97.91;99896.34;6298941;28;20080;-69
2023/07/11 01:31:52;;;;;;;9.60;4.47;;;;;;;21.72;97.65;99894.53;6315003;28;20075;-73
2023/07/11 01:34:53;;;;;;;6.38;4.50;;;;;;;21.64;99.69;99902.53;6299005;28;20087;-72
2023/07/11 01:37:54;;;;;;;7.40;4.67;;;;;;;21.55;100.00;99900.06;6298398;28;20434;-73
2023/07/11 01:40:55;;;;;;;11.07;5.17;;;;;;;21.36;100.00;99886.09;6315567;28;20084;-73
2023/07/11 01:43:56;;;;;;;8.97;5.23;;;;;;;21.50;100.00;99880.16;6299608;28;20057;-70
2023/07/11 01:46:57;;;;;;;7.00;4.68;;;;;;;21.59;100.00;99880.13;6299012;28;20427;-69
2023/07/11 01:49:58;;;;;;;7.80;4.70;;;;;;;21.69;100.00;99872.81;6298211;28;20492;-73
2023/07/11 01:52:59;;;;;;;7.70;5.60;;;;;;;21.48;100.00;99865.41;6299560;28;20097;-73
2023/07/11 01:56:04;;;;;;;13.70;5.60;;;;;;;21.43;100.00;99878.31;6297780;28;20089;-69
2023/07/11 01:59:06;;;;;;;8.02;4.60;;;;;;;21.32;100.00;99871.53;6332582;28;20041;-73
2023/07/11 02:02:08;;;;;;;5.78;4.28;;;;;;;21.25;100.00;99874.00;6299487;28;20052;-73
2023/07/11 02:05:09;;;;;;;10.38;5.28;;;;;;;21.16;100.00;99880.31;6297615;28;20135;-69
2023/07/11 02:08:09;;;;;;;11.13;5.23;;;;;;;21.24;100.00;99884.78;6297675;28;20097;-70
2023/07/11 02:11:10;;;;;;;6.93;4.63;;;;;;;21.20;100.00;99881.63;6297819;28;20061;-69
2023/07/11 02:14:18;;;;;;;8.90;5.53;;;;;;;21.20;100.00;99891.44;6297373;28;20052;-69
2023/07/11 02:17:19;;;;;;;7.53;5.10;;;;;;;21.19;100.00;99893.25;6320594;28;20086;-72
2023/07/11 02:20:19;;;;;;;8.20;5.07;;;;;;;21.10;100.00;99887.09;6323055;28;20052;-73
2023/07/11 02:23:20;;;;;;;10.97;5.13;;;;;;;21.03;100.00;99893.25;6323015;28;20449;-69
2023/07/11 02:26:22;;;;;;;8.17;5.17;;;;;;;21.02;100.00;99888.94;6322518;28;20384;-70
2023/07/11 02:29:23;;;;;;;6.90;4.63;;;;;;;20.96;100.00;99887.78;6322514;28;20059;-73
2023/07/11 02:32:26;;;;;;;7.93;4.73;;;;;;;20.98;100.00;99888.44;6322851;28;20052;-69
2023/07/11 02:35:27;;;;;;;6.82;4.40;;;;;;;21.11;100.00;99877.34;6321814;28;20052;-73
2023/07/11 02:38:27;;;;;;;5.87;4.57;;;;;;;21.07;100.00;99874.19;6323336;28;20051;-69
2023/07/11 02:41:28;;;;;;;8.33;5.47;;;;;;;21.02;100.00;99873.00;6323714;28;20048;-73
2023/07/11 02:44:29;;;;;;;6.63;4.50;;;;;;;20.82;100.00;99869.88;6324094;28;20098;-72
2023/07/11 02:47:29;;;;;;;7.00;4.90;;;;;;;20.90;100.00;99881.31;6323490;28;20083;-69
2023/07/11 02:50:30;;;;;;;7.03;4.47;;;;;;;20.83;100.00;99882.94;6310821;28;20075;-69
2023/07/11 02:53:31;;;;;;;9.40;5.07;;;;;;;21.04;100.00;99884.28;6299068;28;20097;-73
2023/07/11 02:56:34;;;;;;;6.80;4.60;;;;;;;21.09;100.00;99885.44;6312761;28;20121;-73
2023/07/11 02:59:35;;;;;;;7.15;4.53;;;;;;;21.14;100.00;99887.59;6318174;28;20404;-69
2023/07/11 03:02:36;;;;;;;10.32;4.85;;;;;;;21.15;100.00;99886.63;6308356;28;20074;-73
2023/07/11 03:05:44;;;;;;;7.60;4.83;;;;;;;21.14;100.00;99885.78;6302406;28;20044;-69
2023/07/11 03:08:47;;;;;;;7.65;5.10;;;;;;;21.14;100.00;99877.81;6304995;28;20040;-73
2023/07/11 03:11:48;;;;;;;7.35;5.22;;;;;;;20.98;100.00;99883.16;6315170;28;20472;-73
2023/07/11 03:14:49;;;;;;;10.57;4.93;;;;;;;20.99;100.00;99865.41;6321053;28;20050;-73
2023/07/11 03:17:50;;;;;;;8.23;5.33;;;;;;;21.08;100.00;99862.56;6313357;28;20388;-73
2023/07/11 03:20:53;;;;;;;7.73;4.87;;;;;;;21.13;100.00;99865.56;6315899;28;20048;-73
2023/07/11 03:23:54;;;;;;;10.63;4.97;;;;;;;21.13;100.00;99862.09;6306330;28;20055;-69
2023/07/11 03:26:55;;;;;;;5.83;4.90;;;;;;;21.14;100.00;99856.59;6319501;28;20044;-73
2023/07/11 03:29:58;;;;;;;9.43;5.37;;;;;;;21.10;100.00;99862.41;6300532;28;20407;-73
2023/07/11 03:32:59;;;;;;;10.77;5.07;;;;;;;21.21;100.00;99861.22;6320801;28;20048;-73
2023/07/11 03:35:59;;;;;;;9.93;5.60;;;;;;;21.21;100.00;99878.00;6319702;28;20055;-73
2023/07/11 03:39:03;;;;;;;8.90;4.90;;;;;;;21.20;100.00;99868.38;6355148;27;20177;-72
2023/07/11 03:42:04;;;;;;;9.52;5.30;;;;;;;21.26;100.00;99865.03;6314991;28;20051;-72
2023/07/11 03:45:05;;;;;;;11.67;5.00;;;;;;;21.32;100.00;99864.38;6320233;28;20443;-72
2023/07/11 03:48:06;;;;;;;7.35;5.38;;;;;;;21.43;100.00;99865.06;6315869;28;20048;-72
2023/07/11 03:51:07;;;;;;;6.83;4.90;;;;;;;21.56;100.00;99862.72;6311801;28;20052;-73
2023/07/11 03:54:08;;;;;;;7.60;5.03;;;;;;;21.75;100.00;99858.03;6319603;28;20048;-72
2023/07/11 03:57:08;;;;;;;6.17;4.73;;;;;;;21.62;100.00;99851.44;6317399;28;20160;-73
2023/07/11 04:00:10;;;;;;;16.90;5.17;;;;;;;21.84;100.00;99865.78;6322007;28;20097;-73
2023/07/11 04:03:10;;;;;;;6.07;4.72;;;;;;;21.91;100.00;99861.44;6310430;28;20044;-70
2023/07/11 04:06:12;;;;;;;7.77;4.90;;;;;;;21.96;99.74;99849.47;6295768;28;20059;-70
2023/07/11 04:09:13;;;;;;;10.43;4.95;;;;;;;22.00;100.00;99854.28;6295013;28;20673;-70
2023/07/11 04:12:14;;;;;;;6.97;4.90;;;;;;;22.03;99.38;99853.94;6305414;28;20499;-73
2023/07/11 04:15:14;;;;;;;7.53;4.80;;;;;;;22.11;99.08;99843.28;6320522;28;20380;-73
2023/07/11 04:18:15;;;;;;;6.43;4.83;;;;;;;22.01;98.83;99852.44;6345387;28;20079;-73
2023/07/11 04:21:16;;;;;;;8.07;4.57;;;;;;;22.10;98.51;99854.88;6299622;28;20050;-73
2023/07/11 04:24:17;;;;;;;7.28;4.60;;;;;;;22.19;96.47;99850.34;6301292;28;20056;-73
2023/07/11 04:27:19;;;;;;;7.33;4.60;;;;;;;22.30;95.50;99855.34;6317604;28;20048;-69
2023/07/11 04:30:19;;;;;;;6.63;4.95;;;;;;;22.32;96.64;99855.97;6301162;28;20455;-69
2023/07/11 04:33:22;;;;;;;10.37;5.07;;;;;;;22.42;97.59;99855.75;6300364;28;20052;-70
2023/07/11 04:36:23;;;;;;;7.90;4.47;;;;;;;22.40;92.91;99852.44;6305988;28;20056;-73
2023/07/11 04:39:24;;;;;;;7.90;4.83;;;;;;;22.54;93.62;99859.66;6320382;28;20044;-69
2023/07/11 04:42:25;;;;;;;7.57;5.37;;;;;;;22.45;93.07;99858.06;6312600;28;20551;-69
2023/07/11 04:45:29;;;;;;;7.63;4.93;;;;;;;22.51;93.60;99854.69;6315621;28;20109;-73
2023/07/11 04:48:31;;;;;;;8.23;5.05;;;;;;;22.46;93.10;99861.53;6324559;28;20140;-73
2023/07/11 04:51:31;;;;;;;;;;;;;;;22.46;91.97;99857.03;6326759;28;20495;-73
2023/07/11 04:54:32;;;;;;;5.05;4.10;;;;;;;22.47;92.59;99857.91;6322819;28;19923;-73
2023/07/11 04:57:33;;;;;;;7.77;5.20;;;;;;;22.46;93.34;99862.34;6323725;28;20131;-73
2023/07/11 05:00:33;;;;;;;7.87;4.57;;;;;;;22.53;92.99;99862.50;6323835;28;20131;-70
2023/07/11 05:03:34;;;;;;;8.77;4.53;;;;;;;22.46;91.46;99869.50;6299981;28;20048;-73
2023/07/11 05:06:37;;;;;;;5.93;4.33;;;;;;;22.51;90.17;99861.84;6303125;28;20098;-73
2023/07/11 05:09:39;;;;;;;6.75;4.05;;;;;;;22.46;90.87;99872.19;6301308;28;20362;-73
2023/07/11 05:12:40;;;;;;;6.90;3.97;;;;;;;22.45;93.53;99870.53;6313314;28;20048;-73
2023/07/11 05:15:42;;;;;;;9.20;4.80;;;;;;;22.25;93.37;99886.06;6314925;28;20048;-73
2023/07/11 05:18:44;;;;;;;9.25;4.40;;;;;;;22.21;94.29;99901.50;6315742;28;20089;-73
2023/07/11 05:21:44;;;;;;;6.55;4.38;;;;;;;22.35;94.75;99902.63;6325774;28;20048;-73
2023/07/11 05:24:45;;;;;;;8.40;3.77;;;;;;;22.36;98.27;99908.78;6321772;28;20056;-70
2023/07/11 05:27:48;;;;;;;7.87;4.90;;;;;;;22.37;100.00;99884.69;6311091;28;20040;-74
2023/07/11 05:30:51;;;;;;;5.95;4.25;;;;;;;22.27;100.00;99884.06;6318700;28;20189;-74
2023/07/11 05:33:58;;;;;;;9.32;5.00;;;;;;;22.20;100.00;99881.25;6323873;28;20285;-74
2023/07/11 05:36:59;;;;;;;6.30;4.25;;;;;;;22.18;100.00;99879.78;6321605;28;20079;-71
2023/07/11 05:40:02;;;;;;;7.40;4.63;;;;;;;22.32;100.00;99895.84;6316936;28;20059;-71
2023/07/11 05:43:03;;;;;;;11.48;5.53;;;;;;;22.44;100.00;99895.44;6320749;28;20052;-71
2023/07/11 05:46:03;;;;;;;8.47;5.07;;;;;;;22.58;100.00;99897.34;6313836;28;20083;-71
2023/07/11 05:49:05;;;;;;;7.37;4.83;;;;;;;22.52;100.00;99895.41;6309085;28;20083;-74
2023/07/11 05:52:06;;;;;;;8.63;4.90;;;;;;;22.54;100.00;99902.19;6316757;28;20064;-71
2023/07/11 05:55:07;;;;;;;7.17;4.37;;;;;;;22.63;100.00;99918.94;6302457;28;20046;-71
2023/07/11 05:58:08;;;;;;;6.78;4.47;;;;;;;22.65;100.00;99919.59;6310464;28;20296;-71
2023/07/11 06:01:13;;;;;;;8.40;4.33;;;;;;;22.77;100.00;99930.66;6298897;28;20048;-71
2023/07/11 06:04:18;;;;;;;8.25;4.28;;;;;;;22.97;100.00;99938.19;6314415;28;20555;-74
2023/07/11 06:07:22;;;;;;;8.63;4.47;;;;;;;22.92;95.39;99941.38;6322853;28;20468;-71
2023/07/11 06:10:23;;;;;;;7.57;4.57;;;;;;;23.16;100.00;99943.03;6315749;28;20051;-71
2023/07/11 06:13:27;;;;;;;9.47;4.93;;;;;;;23.60;100.00;99941.53;6324012;28;20407;-71
2023/07/11 06:16:33;;;;;;;12.50;4.65;;;;;;;23.69;96.66;99948.44;6322085;28;20048;-71
2023/07/11 06:19:35;;;;;;;6.43;4.20;;;;;;;23.89;92.62;99946.91;6316513;28;20051;-71
2023/07/11 06:22:36;;;;;;;6.75;4.47;;;;;;;23.99;93.89;99951.13;6321538;28;20048;-71
2023/07/11 06:25:38;;;;;;;7.40;4.75;;;;;;;24.13;88.70;99958.31;6316840;28;20467;-71
2023/07/11 06:28:39;;;;;;;;;;;;;;;24.13;88.57;99956.50;6305337;28;20540;-74
2023/07/11 06:31:39;;;;;;;6.32;4.57;;;;;;;24.23;92.18;99945.53;6323454;28;19920;-71
2023/07/11 06:34:42;;;;;;;7.50;5.23;;;;;;;24.42;88.78;99951.28;6322478;28;20056;-74
2023/07/11 06:37:43;;;;;;;8.93;5.53;;;;;;;24.55;84.30;99953.34;6320734;28;20137;-70
2023/07/11 06:40:52;;;;;;;10.77;5.13;;;;;;;24.42;85.07;99948.63;6311893;28;20500;-70
2023/07/11 06:43:53;;;;;;;8.70;5.10;;;;;;;24.64;85.55;99950.38;6295488;28;21063;-71
2023/07/11 06:46:53;;;;;;;11.20;5.00;;;;;;;24.89;84.83;99956.19;6296702;28;20064;-70
2023/07/11 06:49:54;;;;;;;7.03;5.27;;;;;;;25.12;84.50;99958.69;6295518;28;20389;-70
2023/07/11 06:52:55;;;;;;;11.67;5.63;;;;;;;25.02;81.31;99947.50;6296757;28;20052;-70
2023/07/11 06:56:00;;;;;;;9.10;5.80;;;;;;;25.17;82.27;99955.44;6309919;28;20051;-70
2023/07/11 06:59:01;;;;;;;6.80;5.10;;;;;;;25.48;82.47;99949.78;6317950;28;20557;-73
2023/07/11 07:02:03;;;;;;;11.30;5.33;;;;;;;25.10;79.53;99958.06;6304069;28;20050;-73
2023/07/11 07:05:07;;;;;;;13.88;5.45;;;;;;;25.13;79.58;99954.16;6304486;28;20371;-73
2023/07/11 07:08:07;;;;;;;7.47;5.78;;;;;;;25.03;80.10;99951.00;6320714;28;20048;-73
2023/07/11 07:11:09;;;;;;;6.53;4.83;;;;;;;25.68;77.04;99957.94;6317496;28;20480;-73
2023/07/11 07:14:10;;;;;;;11.80;4.93;;;;;;;26.16;74.49;99951.06;6297885;28;20689;-73
2023/07/11 07:17:11;;;;;;;7.13;4.25;;;;;;;26.53;72.23;99949.78;6321289;28;20096;-73
2023/07/11 07:20:12;;;;;;;5.93;4.30;;;;;;;26.60;67.99;99942.63;6314893;28;20044;-70
2023/07/11 07:23:13;;;;;;;7.60;4.03;;;;;;;26.65;67.33;99942.88;6312187;28;20047;-70
2023/07/11 07:26:16;;;;;;;4.78;3.92;;;;;;;26.82;65.32;99927.25;6321859;28;20673;-70
2023/07/11 07:29:16;;;;;;;5.80;3.78;;;;;;;27.05;66.04;99934.91;6309528;28;20045;-70
2023/07/11 07:32:17;;;;;;;7.43;4.50;;;;;;;27.37;63.32;99931.69;6305458;28;20048;-73
2023/07/11 07:35:18;;;;;;;5.95;4.50;;;;;;;27.24;63.44;99924.44;6303992;28;20060;-73
2023/07/11 07:38:19;;;;;;;11.07;6.15;;;;;;;27.47;65.32;99924.88;6296861;28;20048;-70
2023/07/11 07:41:21;;;;;;;9.27;5.70;;;;;;;27.43;64.30;99914.78;6294587;28;20052;-70
2023/07/11 07:44:24;;;;;;;16.55;5.30;;;;;;;27.77;62.65;99905.66;6296260;28;20408;-73
2023/07/11 07:47:27;;;;;;;8.00;5.20;;;;;;;27.77;61.03;99908.31;6303580;28;20055;-73
2023/07/11 07:50:28;;;;;;;7.05;4.32;;;;;;;27.90;59.75;99911.03;6322037;28;20071;-73
2023/07/11 07:53:29;;;;;;;5.20;3.70;;;;;;;28.12;54.98;99913.41;6322214;28;20076;-73
2023/07/11 07:56:30;;;;;;;;;;;;;;;28.11;53.33;99912.59;6321216;28;20138;-70
2023/07/11 07:59:31;;;;;;;3.87;3.10;;;;;;;28.30;52.38;99915.41;6319400;28;20047;-70
2023/07/11 08:02:35;;;;;;;6.55;3.67;;;;;;;28.61;54.92;99920.03;6305407;28;20140;-74
2023/07/11 08:05:37;;;;;;;8.25;2.90;;;;;;;28.68;50.05;99915.47;6296010;28;20048;-73
2023/07/11 08:08:37;;;;;;;;;;;;;;;28.78;50.39;99917.66;6295268;28;20148;-72
2023/07/11 08:11:38;;;;;;;4.73;3.40;;;;;;;29.04;48.33;99916.66;6316455;28;19920;-74
2023/07/11 08:14:41;;;;;;;4.55;3.08;;;;;;;28.47;47.78;99907.69;6320339;28;20059;-73
2023/07/11 08:17:45;;;;;;;4.40;3.35;;;;;;;28.99;49.18;99912.97;6300248;28;20504;-71
2023/07/11 08:20:46;;;;;;;4.22;3.15;;;;;;;29.22;48.93;99915.09;6308339;28;20052;-71
2023/07/11 08:23:47;;;;;;;3.58;2.95;;;;;;;29.31;46.75;99906.53;6323349;28;20098;-71
2023/07/11 08:26:47;;;;;;;7.15;3.50;;;;;;;29.60;47.26;99901.53;6309505;28;20089;-71
2023/07/11 08:29:48;;;;;;;5.00;3.40;;;;;;;29.92;48.44;99893.38;6324064;28;20075;-73
2023/07/11 08:32:51;;;;;;;5.28;3.25;;;;;;;29.80;46.85;99900.53;6324182;28;20110;-73
2023/07/11 08:35:56;;;;;;;5.50;3.10;;;;;;;30.10;46.90;99898.75;6324189;28;20051;-73
2023/07/11 08:38:57;;;;;;;5.50;2.95;;;;;;;30.24;48.33;99899.38;6319577;28;20459;-71
2023/07/11 08:42:03;;;;;;;5.15;3.10;;;;;;;30.30;45.79;99900.38;6301456;28;20055;-73
2023/07/11 08:45:21;;;;;;;4.95;3.10;;;;;;;29.63;46.26;99908.31;6324143;28;20052;-73
2023/07/11 08:48:42;;;;;;;5.78;3.05;;;;;;;29.84;44.36;99899.88;6307552;28;20424;-73
2023/07/11 08:51:50;;;;;;;6.97;3.27;;;;;;;29.96;45.81;99905.31;6318230;28;20055;-73
2023/07/11 08:54:54;;;;;;;5.18;3.45;;;;;;;30.19;46.58;99901.13;6312898;28;20040;-73
2023/07/11 08:58:06;;;;;;;5.28;3.00;;;;;;;30.02;46.71;99909.81;6312078;28;20496;-73
2023/07/11 09:01:23;;;;;;;6.57;2.80;;;;;;;29.82;45.46;99903.84;6310573;28;20143;-73
2023/07/11 09:04:24;;;;;;;6.07;3.30;;;;;;;30.01;44.76;99908.16;6321770;28;20074;-73
2023/07/11 09:07:34;;;;;;;3.72;2.60;;;;;;;30.35;45.88;99907.75;6318793;28;20044;-73
2023/07/11 09:10:58;;;;;;;5.95;3.00;;;;;;;30.63;44.93;99905.31;6315459;28;20085;-75
2023/07/11 09:13:59;;;;;;;4.03;2.92;;;;;;;30.97;46.37;99916.44;6299080;28;20087;-73
2023/07/11 09:17:14;;;;;;;3.90;2.72;;;;;;;31.06;42.25;99909.66;6310053;28;20043;-72
2023/07/11 09:20:27;;;;;;;6.80;3.47;;;;;;;31.15;40.82;99909.31;6330452;28;20146;-71
2023/07/11 09:24:14;;;;;;;4.18;2.85;;;;;;;31.19;43.26;99911.31;6297698;28;20055;-73
2023/07/11 09:27:15;;;;;;;5.15;3.00;;;;;;;31.37;42.65;99917.66;6273475;28;20062;-74
2023/07/11 09:30:33;;;;;;;6.47;3.08;;;;;;;30.39;44.53;99908.94;6313029;28;20483;-71
2023/07/11 09:33:37;;;;;;;6.18;3.00;;;;;;;30.60;45.04;99911.16;6320903;28;20048;-73
2023/07/11 09:36:39;;;;;;;4.32;3.00;;;;;;;30.71;42.83;99915.75;6299968;28;20079;-72
2023/07/11 09:39:47;;;;;;;6.38;3.13;;;;;;;30.66;43.66;99909.41;6311014;28;20044;-71
2023/07/11 09:42:52;;;;;;;9.27;3.13;;;;;;;30.75;46.25;99913.44;6310631;28;20056;-73
2023/07/11 09:45:53;;;;;;;4.65;3.33;;;;;;;30.28;45.78;99910.53;6312648;28;20052;-73
2023/07/11 09:48:57;;;;;;;6.30;3.15;;;;;;;30.16;44.84;99902.38;6323717;28;20044;-73
2023/07/11 09:52:02;;;;;;;5.70;3.63;;;;;;;30.64;49.29;99904.28;6323420;28;20549;-73
2023/07/11 09:55:24;;;;;;;7.20;3.75;;;;;;;30.71;44.83;99904.97;6323306;28;20106;-73
2023/07/11 09:58:30;;;;;;;4.70;3.33;;;;;;;30.44;45.35;99903.72;6321975;28;20048;-71
2023/07/11 10:01:36;;;;;;;3.90;3.00;;;;;;;30.89;46.73;99898.75;6323153;28;20052;-72
2023/07/11 10:04:45;;;;;;;5.53;3.25;;;;;;;31.07;45.70;99900.53;6308925;28;20446;-73
2023/07/11 10:07:57;;;;;;;6.97;3.35;;;;;;;31.21;48.42;99893.03;6304515;28;20542;-73
2023/07/11 10:11:06;;;;;;;3.95;3.10;;;;;;;31.57;44.40;99899.31;6305186;28;20048;-73
2023/07/11 10:14:17;;;;;;;5.65;3.40;;;;;;;31.39;43.66;99896.69;6300719;28;20055;-74
2023/07/11 10:17:26;;;;;;;6.45;3.22;;;;;;;30.99;44.77;99884.72;6312175;28;20400;-73
2023/07/11 10:20:28;;;;;;;5.82;3.30;;;;;;;30.70;43.04;99897.13;6312200;28;20048;-73
2023/07/11 10:23:29;;;;;;;3.95;3.03;;;;;;;30.09;44.56;99896.28;6306233;28;20044;-71
2023/07/11 10:26:30;;;;;;;5.47;3.15;;;;;;;30.92;45.41;99895.56;6293237;28;20491;-71
2023/07/11 10:29:42;;;;;;;6.45;3.63;;;;;;;30.23;45.21;99891.53;6309141;28;20071;-71
2023/07/11 10:32:48;;;;;;;4.53;3.25;;;;;;;30.60;45.75;99897.69;6307467;28;20044;-71
2023/07/11 10:35:55;;;;;;;4.80;3.33;;;;;;;30.16;45.44;99897.00;6328810;27;20519;-73
2023/07/11 10:39:02;;;;;;;4.15;2.90;;;;;;;30.42;44.85;99893.19;6314708;28;20040;-73
2023/07/11 10:42:09;;;;;;;6.03;3.58;;;;;;;31.36;44.84;99897.16;6312848;28;20495;-73
2023/07/11 10:45:17;;;;;;;5.18;3.42;;;;;;;31.66;46.44;99897.88;6311264;28;20496;-73
2023/07/11 10:48:25;;;;;;;7.00;3.42;;;;;;;31.40;44.58;99899.16;6312553;28;20040;-71
2023/07/11 10:51:36;;;;;;;5.25;3.28;;;;;;;31.68;45.21;99898.44;6318476;28;20047;-72
2023/07/11 10:55:07;;;;;;;7.70;3.67;;;;;;;32.24;44.27;99896.13;6302294;28;20048;-73
2023/07/11 10:58:09;;;;;;;3.65;2.63;;;;;;;31.63;47.29;99901.06;6308300;28;20125;-73
2023/07/11 11:01:51;;;;;;;6.45;3.00;;;;;;;32.11;44.05;99888.31;6315678;28;20049;-73
2023/07/11 11:05:24;;;;;;;3.60;2.58;;;;;;;32.44;44.35;99884.09;6294801;28;20407;-73
2023/07/11 11:09:04;;;;;;;4.25;2.97;;;;;;;32.07;45.13;99892.56;6301004;28;20055;-73
2023/07/11 11:12:19;;;;;;;5.07;3.10;;;;;;;32.16;43.29;99888.41;6316960;28;20048;-72
2023/07/11 11:15:22;;;;;;;4.35;3.10;;;;;;;32.65;46.52;99883.41;6298705;28;20094;-71
2023/07/11 11:18:26;;;;;;;4.30;3.00;;;;;;;32.75;42.17;99890.06;6312841;28;20476;-73
2023/07/11 11:21:39;;;;;;;4.88;3.40;;;;;;;31.86;44.17;99888.59;6321370;28;20044;-73
2023/07/11 11:25:00;;;;;;;4.90;3.25;;;;;;;31.57;50.01;99898.47;6318954;28;20056;-73
2023/07/11 11:28:07;;;;;;;6.63;3.10;;;;;;;32.18;44.87;99891.69;6316385;28;20516;-73
2023/07/11 11:31:29;;;;;;;3.60;2.85;;;;;;;32.54;40.15;99881.59;6295507;28;20055;-73
2023/07/11 11:34:54;;;;;;;10.60;3.30;;;;;;;32.71;38.24;99887.84;6295049;28;20048;-72
2023/07/11 11:38:13;;;;;;;4.75;3.10;;;;;;;32.85;40.33;99879.44;6312302;28;20407;-72
2023/07/11 11:41:17;;;;;;;5.18;2.95;;;;;;;32.42;40.38;99886.22;6320964;28;20056;-71
2023/07/11 11:44:22;;;;;;;7.30;3.63;;;;;;;32.52;40.13;99887.22;6319431;28;20051;-72
2023/07/11 11:47:24;;;;;;;8.15;3.50;;;;;;;32.42;39.35;99878.09;6303041;28;20052;-71
2023/07/11 11:50:28;;;;;;;4.20;3.03;;;;;;;33.02;42.12;99879.44;6295701;28;20078;-72
2023/07/11 11:53:46;;;;;;;6.75;3.58;;;;;;;32.75;38.53;99873.84;6303590;28;20044;-72
2023/07/11 11:56:53;;;;;;;4.63;3.15;;;;;;;32.34;38.35;99871.22;6309952;28;20052;-72
2023/07/11 11:59:54;;;;;;;6.53;3.50;;;;;;;32.38;40.19;99871.56;6310973;28;20053;-72
2023/07/11 12:02:55;;;;;;;;;;;;;;;32.47;38.27;99878.19;6309404;28;20052;-73
2023/07/11 12:05:59;;;;;;;7.30;3.55;;;;;;;32.77;37.99;99877.94;6300200;28;20359;-71
2023/07/11 12:09:18;;;;;;;4.97;3.40;;;;;;;32.53;40.56;99880.75;6302927;28;20045;-72
2023/07/11 12:12:27;;;;;;;5.35;3.28;;;;;;;32.44;39.45;99882.19;6300692;28;20056;-72
2023/07/11 12:15:35;;;;;;;4.53;3.30;;;;;;;32.13;39.67;99870.81;6310504;28;20044;-71
2023/07/11 12:19:02;;;;;;;5.72;3.60;;;;;;;32.23;37.86;99881.00;6325559;28;20060;-74
2023/07/11 12:22:06;;;;;;;4.65;3.40;;;;;;;31.85;37.64;99882.34;6314927;28;20132;-73
2023/07/11 12:25:13;;;;;;;5.13;3.58;;;;;;;31.93;39.34;99870.38;6316906;28;20055;-74
2023/07/11 12:28:23;;;;;;;5.93;3.50;;;;;;;31.39;37.53;99875.94;6314008;28;20405;-73
2023/07/11 12:31:25;;;;;;;4.93;2.90;;;;;;;31.85;37.93;99866.16;6321855;28;20079;-74
2023/07/11 12:34:25;;;;;;;6.35;2.90;;;;;;;31.63;36.46;99878.63;6323724;28;20130;-73
2023/07/11 12:37:26;;;;;;;;;;;;;;;31.61;34.53;99881.59;6324901;28;20058;-71
2023/07/11 12:40:42;;;;;;;4.90;3.10;;;;;;;31.99;34.91;99869.47;6322008;28;19920;-71
2023/07/11 12:43:47;;;;;;;5.78;3.45;;;;;;;32.24;34.14;99869.13;6322945;28;20048;-71
2023/07/11 12:46:52;;;;;;;5.57;3.35;;;;;;;32.05;34.99;99870.38;6311573;28;20055;-71
2023/07/11 12:49:56;;;;;;;5.00;2.88;;;;;;;32.15;34.66;99870.59;6319754;28;20435;-71
2023/07/11 12:53:03;;;;;;;5.40;3.53;;;;;;;31.97;35.60;99868.03;6319115;28;20048;-71
2023/07/11 12:56:12;;;;;;;5.10;3.28;;;;;;;32.27;36.20;99859.75;6306191;28;20078;-72
2023/07/11 12:59:24;;;;;;;7.22;3.20;;;;;;;31.68;36.57;99866.09;6316397;28;20044;-71
2023/07/11 13:02:29;;;;;;;4.05;3.20;;;;;;;31.77;34.52;99866.53;6310310;28;20048;-71
2023/07/11 13:05:31;;;;;;;5.93;3.30;;;;;;;31.97;35.48;99865.34;6316730;28;20044;-72
2023/07/11 13:08:36;;;;;;;7.10;3.35;;;;;;;32.52;36.82;99862.09;6313752;28;20044;-71
2023/07/11 13:11:37;;;;;;;4.13;2.95;;;;;;;32.49;35.12;99866.09;6318184;28;20079;-72
2023/07/11 13:14:40;;;;;;;;;;;;;;;32.78;36.11;99857.16;6315843;28;20047;-72
2023/07/11 13:17:43;;;;;;;4.93;3.17;;;;;;;32.36;36.42;99868.28;6319610;28;19946;-72
2023/07/11 13:20:46;;;;;;;5.72;3.50;;;;;;;32.20;35.69;99867.97;6312520;28;20535;-74
2023/07/11 13:23:48;;;;;;;4.90;3.38;;;;;;;32.27;34.83;99868.66;6298640;28;20615;-74
2023/07/11 13:26:50;;;;;;;5.93;3.53;;;;;;;32.38;34.81;99871.56;6302090;28;20056;-74
2023/07/11 13:29:55;;;;;;;6.13;3.42;;;;;;;32.17;34.93;99865.78;6319021;28;20388;-74
2023/07/11 13:32:58;;;;;;;5.70;3.75;;;;;;;32.18;36.14;99875.50;6315882;28;20079;-74
2023/07/11 13:36:04;;;;;;;5.03;3.40;;;;;;;32.24;35.63;99869.13;6308414;28;20056;-71
2023/07/11 13:39:10;;;;;;;5.20;3.42;;;;;;;31.99;34.28;99866.75;6305444;28;20040;-71
2023/07/11 13:42:12;;;;;;;5.75;3.33;;;;;;;31.68;34.36;99867.97;6300785;28;20063;-72
2023/07/11 13:45:18;;;;;;;4.25;3.20;;;;;;;31.49;33.68;99870.00;6302042;28;20419;-74
2023/07/11 13:48:24;;;;;;;4.85;3.47;;;;;;;31.81;36.67;99867.69;6298337;28;20053;-74
2023/07/11 13:51:37;;;;;;;5.07;3.10;;;;;;;32.26;38.52;99867.00;6302461;28;20138;-74
2023/07/11 13:54:40;;;;;;;6.63;3.35;;;;;;;32.24;33.32;99874.53;6310186;28;20499;-74
2023/07/11 13:57:41;;;;;;;4.68;2.97;;;;;;;32.07;35.41;99869.06;6309014;28;20040;-74
2023/07/11 14:00:49;;;;;;;;;;;;;;;32.01;36.56;99866.53;6299841;28;20193;-74
2023/07/11 14:03:53;;;;;;;4.88;3.17;;;;;;;31.80;35.60;99865.25;6321105;28;19976;-74
2023/07/11 14:06:54;;;;;;;5.20;3.35;;;;;;;31.85;36.28;99858.06;6320347;28;20518;-71
2023/07/11 14:09:54;;;;;;;;;;;;;;;31.88;36.16;99862.19;6315657;28;20048;-71
2023/07/11 14:12:57;;;;;;;5.27;3.40;;;;;;;32.06;37.52;99862.06;6296378;28;20328;-71
2023/07/11 14:15:58;;;;;;;5.72;3.92;;;;;;;31.56;36.70;99856.38;6303388;28;20044;-72
2023/07/11 14:19:03;;;;;;;;;;;;;;;31.04;39.41;99865.16;6303221;28;20048;-72
2023/07/11 14:22:18;;;;;;;6.28;3.72;;;;;;;30.77;38.20;99862.03;6303360;28;19924;-74
2023/07/11 14:25:22;;;;;;;4.93;3.40;;;;;;;30.96;37.37;99858.22;6300042;28;20135;-73
2023/07/11 14:28:23;;;;;;;4.72;3.47;;;;;;;31.59;37.32;99855.91;6295427;28;20053;-73